createdAt,value
2022-12-06T00:00:11.978Z,18.90
2022-12-06T00:00:48.141Z,20.00
2022-12-06T00:01:25.096Z,19.10
2022-12-06T00:01:57.086Z,20.30
2022-12-06T00:02:29.164Z,18.70
2022-12-06T00:03:01.190Z,19.60
2022-12-06T00:03:33.392Z,18.00
2022-12-06T00:04:06.763Z,21.20
2022-12-06T00:04:38.493Z,21.70
2022-12-06T00:05:10.451Z,20.10
2022-12-06T00:05:46.219Z,20.60
2022-12-06T00:06:19.603Z,19.30
2022-12-06T00:06:51.401Z,19.80
2022-12-06T00:07:23.154Z,19.50
2022-12-06T00:07:54.978Z,18.40
2022-12-06T00:08:26.806Z,20.10
2022-12-06T00:08:59.199Z,20.10
2022-12-06T00:09:32.074Z,18.90
2022-12-06T00:10:04.405Z,20.40
2022-12-06T00:10:36.509Z,20.20
2022-12-06T00:11:15.684Z,19.20
2022-12-06T00:11:47.773Z,19.80
2022-12-06T00:12:19.470Z,20.10
2022-12-06T00:12:51.741Z,19.90
2022-12-06T00:13:23.708Z,19.90
2022-12-06T00:13:56.949Z,20.00
2022-12-06T00:14:28.681Z,19.50
2022-12-06T00:15:00.356Z,21.10
2022-12-06T00:15:35.086Z,21.50
2022-12-06T00:16:08.604Z,20.80
2022-12-06T00:16:41.071Z,20.80
2022-12-06T00:17:13.130Z,19.90
2022-12-06T00:17:44.796Z,20.70
2022-12-06T00:18:16.595Z,19.90
2022-12-06T00:18:48.315Z,21.60
2022-12-06T00:19:21.481Z,20.60
2022-12-06T00:19:53.330Z,20.00
2022-12-06T00:20:25.174Z,20.80
2022-12-06T00:20:57.052Z,20.80
2022-12-06T00:21:35.943Z,20.30
2022-12-06T00:22:07.708Z,20.30
2022-12-06T00:22:43.460Z,21.30
2022-12-06T00:23:15.196Z,21.10
2022-12-06T00:23:57.093Z,21.60
2022-12-06T00:24:28.927Z,20.20
2022-12-06T00:25:00.952Z,22.00
2022-12-06T00:25:35.150Z,21.80
2022-12-06T00:26:08.098Z,21.00
2022-12-06T00:26:41.082Z,20.90
2022-12-06T00:27:12.764Z,19.60
2022-12-06T00:27:44.586Z,22.00
2022-12-06T00:28:16.612Z,20.00
2022-12-06T00:28:48.644Z,20.10
2022-12-06T00:29:22.120Z,18.90
2022-12-06T00:29:54.057Z,21.30
2022-12-06T00:30:25.889Z,20.20
2022-12-06T00:30:59.055Z,19.70
2022-12-06T00:31:31.603Z,20.00
2022-12-06T00:32:03.473Z,21.20
2022-12-06T00:32:35.210Z,20.80
2022-12-06T00:33:07.116Z,21.80
2022-12-06T00:33:39.041Z,20.70
2022-12-06T00:34:10.935Z,20.40
2022-12-06T00:34:42.888Z,20.60
2022-12-06T00:35:14.606Z,19.80
2022-12-06T00:35:54.313Z,20.20
2022-12-06T00:36:27.969Z,19.40
2022-12-06T00:36:59.939Z,21.20
2022-12-06T00:37:31.678Z,19.90
2022-12-06T00:38:03.554Z,20.70
2022-12-06T00:38:36.106Z,19.70
2022-12-06T00:39:09.574Z,20.70
2022-12-06T00:39:41.895Z,20.30
2022-12-06T00:40:13.858Z,20.20
2022-12-06T00:40:45.622Z,20.00
2022-12-06T00:41:18.743Z,20.30
2022-12-06T00:41:50.718Z,19.90
2022-12-06T00:42:22.502Z,20.00
2022-12-06T00:42:54.230Z,20.70
2022-12-06T00:43:26.900Z,20.00
2022-12-06T00:43:58.732Z,22.20
2022-12-06T00:44:30.718Z,19.40
2022-12-06T00:45:02.468Z,20.40
2022-12-06T00:45:34.188Z,20.50
2022-12-06T00:46:07.654Z,20.30
2022-12-06T00:46:39.766Z,20.70
2022-12-06T00:47:11.828Z,20.40
2022-12-06T00:47:43.770Z,20.40
2022-12-06T00:48:15.583Z,21.00
2022-12-06T00:48:48.207Z,19.90
2022-12-06T00:49:19.984Z,20.90
2022-12-06T00:49:52.173Z,21.10
2022-12-06T00:50:23.966Z,19.80
2022-12-06T00:50:55.853Z,19.80
2022-12-06T00:51:29.042Z,20.40
2022-12-06T00:52:00.817Z,20.50
2022-12-06T00:52:32.527Z,20.10
2022-12-06T00:53:04.351Z,21.80
2022-12-06T00:53:36.327Z,21.00
2022-12-06T00:54:08.598Z,20.20
2022-12-06T00:54:40.303Z,20.80
2022-12-06T00:55:12.237Z,21.20
2022-12-06T00:55:44.034Z,19.40
2022-12-06T00:56:16.397Z,21.20
2022-12-06T00:56:48.422Z,20.70
2022-12-06T00:57:20.369Z,20.40
2022-12-06T00:57:52.188Z,19.60
2022-12-06T00:58:23.967Z,20.10
2022-12-06T00:58:55.802Z,20.20
2022-12-06T00:59:27.563Z,20.10
2022-12-06T00:59:59.761Z,19.50
2022-12-06T01:00:31.834Z,21.00
2022-12-06T01:01:10.923Z,20.10
2022-12-06T01:01:42.721Z,21.00
2022-12-06T01:02:14.523Z,19.40
2022-12-06T01:02:46.616Z,20.30
2022-12-06T01:03:18.515Z,20.70
2022-12-06T01:03:51.820Z,20.00
2022-12-06T01:04:23.790Z,20.90
2022-12-06T01:04:55.921Z,20.50
2022-12-06T01:05:27.762Z,20.80
2022-12-06T01:06:03.232Z,19.50
2022-12-06T01:06:35.748Z,19.70
2022-12-06T01:07:07.594Z,20.30
2022-12-06T01:07:39.485Z,20.30
2022-12-06T01:08:11.923Z,21.20
2022-12-06T01:08:44.209Z,20.90
2022-12-06T01:09:15.878Z,20.40
2022-12-06T01:09:47.609Z,21.20
2022-12-06T01:10:19.302Z,20.80
2022-12-06T01:10:54.516Z,20.30
2022-12-06T01:11:26.781Z,21.10
2022-12-06T01:11:58.583Z,20.10
2022-12-06T01:12:30.415Z,21.90
2022-12-06T01:13:02.166Z,20.30
2022-12-06T01:13:34.249Z,21.50
2022-12-06T01:14:06.058Z,19.50
2022-12-06T01:14:37.897Z,20.40
2022-12-06T01:15:09.871Z,20.50
2022-12-06T01:15:41.577Z,21.20
2022-12-06T01:16:14.837Z,19.10
2022-12-06T01:16:46.630Z,21.10
2022-12-06T01:17:19.168Z,20.80
2022-12-06T01:17:51.492Z,21.00
2022-12-06T01:18:23.321Z,20.90
2022-12-06T01:18:59.260Z,20.20
2022-12-06T01:19:30.999Z,21.30
2022-12-06T01:20:03.148Z,19.70
2022-12-06T01:20:35.027Z,21.10
2022-12-06T01:21:08.380Z,19.80
2022-12-06T01:21:40.309Z,19.90
2022-12-06T01:22:12.088Z,21.00
2022-12-06T01:22:43.919Z,20.40
2022-12-06T01:23:15.854Z,19.50
2022-12-06T01:23:48.030Z,20.00
2022-12-06T01:24:19.763Z,20.30
2022-12-06T01:24:51.618Z,19.40
2022-12-06T01:25:26.087Z,19.40
2022-12-06T01:25:58.358Z,19.90
2022-12-06T01:26:31.819Z,20.00
2022-12-06T01:27:03.571Z,20.30
2022-12-06T01:27:35.421Z,19.10
2022-12-06T01:28:07.249Z,20.30
2022-12-06T01:28:38.873Z,19.70
2022-12-06T01:29:10.707Z,21.00
2022-12-06T01:29:42.498Z,21.60
2022-12-06T01:30:14.583Z,19.90
2022-12-06T01:30:46.471Z,20.20
2022-12-06T01:31:18.682Z,20.50
2022-12-06T01:31:50.520Z,19.60
2022-12-06T01:32:22.301Z,20.10
2022-12-06T01:32:54.121Z,19.80
2022-12-06T01:33:26.185Z,19.80
2022-12-06T01:33:57.895Z,19.30
2022-12-06T01:34:29.749Z,19.10
2022-12-06T01:35:01.587Z,20.00
2022-12-06T01:35:33.296Z,20.00
2022-12-06T01:36:05.107Z,21.10
2022-12-06T01:36:37.031Z,20.00
2022-12-06T01:37:08.608Z,19.50
2022-12-06T01:37:40.329Z,20.60
2022-12-06T01:38:12.424Z,20.00
2022-12-06T01:38:44.298Z,20.20
2022-12-06T01:39:15.943Z,20.70
2022-12-06T01:39:47.673Z,19.90
2022-12-06T01:40:19.359Z,20.80
2022-12-06T01:40:51.029Z,20.10
2022-12-06T01:41:24.349Z,19.80
2022-12-06T01:41:56.099Z,21.60
2022-12-06T01:42:27.833Z,21.90
2022-12-06T01:42:59.598Z,20.90
2022-12-06T01:43:31.262Z,20.60
2022-12-06T01:44:04.066Z,20.20
2022-12-06T01:45:08.157Z,20.30
2022-12-06T01:45:40.111Z,20.30
2022-12-06T01:46:12.147Z,19.70
2022-12-06T01:46:44.864Z,20.00
2022-12-06T01:47:30.011Z,19.00
2022-12-06T01:48:01.955Z,18.90
2022-12-06T01:48:34.395Z,18.90
2022-12-06T01:49:18.334Z,19.90
2022-12-06T01:49:56.081Z,20.10
2022-12-06T01:50:32.266Z,20.10
2022-12-06T01:51:05.984Z,20.40
2022-12-06T01:51:38.426Z,18.70
2022-12-06T01:52:11.378Z,18.10
2022-12-06T01:52:46.120Z,19.20
2022-12-06T01:53:22.666Z,18.40
2022-12-06T01:53:58.010Z,19.90
2022-12-06T01:54:30.090Z,17.90
2022-12-06T01:55:02.403Z,18.00
2022-12-06T01:55:37.059Z,18.00
2022-12-06T01:56:08.959Z,19.10
2022-12-06T01:56:41.056Z,18.60
2022-12-06T01:57:13.613Z,18.30
2022-12-06T01:57:45.919Z,19.60
2022-12-06T01:58:19.663Z,19.00
2022-12-06T01:58:53.728Z,18.40
2022-12-06T01:59:26.009Z,17.90
2022-12-06T01:59:58.160Z,19.70
2022-12-06T02:00:30.216Z,17.90
2022-12-06T02:01:02.030Z,20.10
2022-12-06T02:01:34.386Z,18.90
2022-12-06T02:02:07.287Z,19.20
2022-12-06T02:02:39.254Z,17.60
2022-12-06T02:03:13.870Z,18.90
2022-12-06T02:03:47.153Z,18.00
2022-12-06T02:04:18.963Z,19.20
2022-12-06T02:04:51.926Z,18.60
2022-12-06T02:05:24.237Z,19.70
2022-12-06T02:05:56.990Z,20.10
2022-12-06T02:06:29.266Z,18.20
2022-12-06T02:07:01.905Z,18.60
2022-12-06T02:07:33.861Z,18.10
2022-12-06T02:08:09.218Z,18.30
2022-12-06T02:08:41.345Z,19.70
2022-12-06T02:09:13.308Z,17.60
2022-12-06T02:09:45.836Z,18.50
2022-12-06T02:10:17.861Z,18.60
2022-12-06T02:10:49.837Z,18.50
2022-12-06T02:11:21.600Z,18.30
2022-12-06T02:11:53.339Z,17.20
2022-12-06T02:12:25.009Z,18.20
2022-12-06T02:12:57.912Z,18.40
2022-12-06T02:13:30.792Z,17.80
2022-12-06T02:14:05.094Z,18.60
2022-12-06T02:14:36.951Z,17.20
2022-12-06T02:15:08.967Z,17.70
2022-12-06T02:15:51.552Z,18.00
2022-12-06T02:16:26.573Z,18.30
2022-12-06T02:17:07.222Z,19.00
2022-12-06T02:17:39.685Z,17.70
2022-12-06T02:18:15.442Z,19.00
2022-12-06T02:18:49.672Z,18.70
2022-12-06T02:19:21.422Z,17.90
2022-12-06T02:20:07.003Z,17.60
2022-12-06T02:20:46.721Z,18.50
2022-12-06T02:21:24.140Z,18.90
2022-12-06T02:22:01.721Z,18.80
2022-12-06T02:22:33.502Z,18.20
2022-12-06T02:23:23.402Z,17.20
2022-12-06T02:24:01.888Z,17.20
2022-12-06T02:24:42.956Z,17.20
2022-12-06T02:25:33.868Z,17.80
2022-12-06T02:26:57.971Z,17.80
2022-12-06T02:28:01.913Z,18.70
2022-12-06T02:28:39.691Z,17.00
2022-12-06T02:29:14.191Z,18.10
2022-12-06T02:29:55.102Z,17.70
2022-12-06T02:31:07.304Z,17.40
2022-12-06T02:31:57.631Z,16.80
2022-12-06T02:32:34.882Z,17.60
2022-12-06T02:33:08.051Z,18.10
2022-12-06T02:33:43.768Z,18.80
2022-12-06T02:34:15.591Z,17.40
2022-12-06T02:34:53.295Z,17.40
2022-12-06T02:35:39.878Z,18.10
2022-12-06T02:36:14.392Z,16.60
2022-12-06T02:36:52.127Z,17.40
2022-12-06T02:37:30.834Z,17.40
2022-12-06T02:38:02.433Z,16.80
2022-12-06T02:38:36.691Z,17.00
2022-12-06T02:39:08.345Z,17.90
2022-12-06T02:39:52.140Z,17.50
2022-12-06T02:40:28.157Z,17.20
2022-12-06T02:41:07.270Z,17.30
2022-12-06T02:41:41.789Z,16.70
2022-12-06T02:42:28.983Z,17.40
2022-12-06T02:43:02.397Z,17.80
2022-12-06T02:43:37.424Z,17.00
2022-12-06T02:44:12.820Z,16.60
2022-12-06T02:44:50.776Z,17.50
2022-12-06T02:45:26.274Z,16.40
2022-12-06T02:46:00.217Z,18.10
2022-12-06T02:46:33.600Z,18.00
2022-12-06T02:47:07.364Z,17.70
2022-12-06T02:47:39.319Z,17.00
2022-12-06T02:48:11.901Z,17.60
2022-12-06T02:48:44.639Z,18.60
2022-12-06T02:49:17.509Z,16.40
2022-12-06T02:49:49.912Z,17.70
2022-12-06T02:50:24.255Z,17.40
2022-12-06T02:51:00.912Z,17.20
2022-12-06T02:51:34.595Z,17.40
2022-12-06T02:52:06.435Z,17.00
2022-12-06T02:52:40.086Z,17.00
2022-12-06T02:53:14.550Z,17.30
2022-12-06T02:53:48.454Z,16.20
2022-12-06T02:54:21.910Z,17.40
2022-12-06T02:54:57.874Z,18.50
2022-12-06T02:55:30.529Z,18.30
2022-12-06T02:56:02.325Z,18.30
2022-12-06T02:56:34.419Z,17.00
2022-12-06T02:57:06.188Z,17.10
2022-12-06T02:57:42.871Z,17.90
2022-12-06T02:58:14.896Z,17.00
2022-12-06T02:58:47.048Z,17.80
2022-12-06T02:59:18.733Z,18.60
2022-12-06T02:59:52.283Z,16.80
2022-12-06T03:00:36.196Z,17.70
2022-12-06T03:01:15.635Z,17.40
2022-12-06T03:01:49.500Z,16.90
2022-12-06T03:02:22.427Z,16.20
2022-12-06T03:02:58.856Z,17.10
2022-12-06T03:03:49.370Z,16.70
2022-12-06T03:04:33.215Z,18.10
2022-12-06T03:05:15.641Z,16.90
2022-12-06T03:06:02.595Z,16.70
2022-12-06T03:06:44.852Z,16.20
2022-12-06T03:07:19.524Z,16.00
2022-12-06T03:07:51.819Z,16.20
2022-12-06T03:08:32.667Z,17.40
2022-12-06T03:09:45.405Z,16.70
2022-12-06T03:10:35.902Z,17.00
2022-12-06T03:11:07.993Z,18.70
2022-12-06T03:11:42.750Z,17.60
2022-12-06T03:12:14.417Z,18.00
2022-12-06T03:12:55.118Z,17.30
2022-12-06T03:13:33.556Z,16.90
2022-12-06T03:14:08.289Z,16.80
2022-12-06T03:14:45.916Z,16.70
2022-12-06T03:15:35.924Z,16.90
2022-12-06T03:16:10.422Z,16.40
2022-12-06T03:16:47.026Z,17.60
2022-12-06T03:17:26.460Z,16.70
2022-12-06T03:18:07.848Z,16.90
2022-12-06T03:18:43.563Z,18.70
2022-12-06T03:19:15.370Z,16.80
2022-12-06T03:19:50.602Z,16.20
2022-12-06T03:20:28.339Z,17.50
2022-12-06T03:21:12.509Z,16.60
2022-12-06T03:22:05.153Z,16.30
2022-12-06T03:22:40.001Z,15.60
2022-12-06T03:23:14.675Z,15.80
2022-12-06T03:23:48.465Z,15.60
2022-12-06T03:24:20.896Z,15.70
2022-12-06T03:24:52.908Z,17.10
2022-12-06T03:25:25.988Z,15.90
2022-12-06T03:25:59.926Z,16.80
2022-12-06T03:26:32.316Z,15.70
2022-12-06T03:27:05.656Z,15.10
2022-12-06T03:27:39.592Z,16.00
2022-12-06T03:28:13.264Z,16.60
2022-12-06T03:28:46.455Z,15.60
2022-12-06T03:29:21.115Z,16.90
2022-12-06T03:29:54.933Z,16.10
2022-12-06T03:30:27.546Z,16.70
2022-12-06T03:31:02.102Z,17.60
2022-12-06T03:31:35.530Z,16.80
2022-12-06T03:32:08.060Z,17.20
2022-12-06T03:32:41.995Z,16.60
2022-12-06T03:33:15.324Z,16.90
2022-12-06T03:33:49.312Z,16.90
2022-12-06T03:34:22.772Z,16.60
2022-12-06T03:34:56.385Z,16.90
2022-12-06T03:35:30.690Z,16.60
2022-12-06T03:36:02.685Z,16.50
2022-12-06T03:36:34.985Z,17.10
2022-12-06T03:37:08.856Z,17.30
2022-12-06T03:37:42.197Z,17.40
2022-12-06T03:38:17.074Z,16.60
2022-12-06T03:38:54.957Z,18.30
2022-12-06T03:39:42.677Z,17.00
2022-12-06T03:40:19.009Z,17.40
2022-12-06T03:40:52.154Z,18.50
2022-12-06T03:41:26.514Z,19.00
2022-12-06T03:41:58.938Z,16.10
2022-12-06T03:42:31.445Z,16.70
2022-12-06T03:43:04.453Z,17.70
2022-12-06T03:43:36.168Z,17.40
2022-12-06T03:44:07.803Z,17.90
2022-12-06T03:44:39.599Z,16.60
2022-12-06T03:45:11.942Z,16.70
2022-12-06T03:45:53.063Z,16.90
2022-12-06T03:46:28.130Z,16.00
2022-12-06T03:47:03.721Z,16.90
2022-12-06T03:47:38.271Z,16.00
2022-12-06T03:48:11.496Z,16.30
2022-12-06T03:48:45.715Z,16.40
2022-12-06T03:49:20.337Z,15.60
2022-12-06T03:49:55.049Z,17.10
2022-12-06T03:50:31.987Z,15.80
2022-12-06T03:51:05.335Z,16.60
2022-12-06T03:51:38.564Z,16.50
2022-12-06T03:52:10.478Z,16.60
2022-12-06T03:52:42.194Z,16.30
2022-12-06T03:53:15.956Z,16.50
2022-12-06T03:53:53.109Z,16.80
2022-12-06T03:54:25.008Z,16.30
2022-12-06T03:54:56.585Z,16.80
2022-12-06T03:55:28.362Z,16.60
2022-12-06T03:56:00.188Z,16.50
2022-12-06T03:56:32.485Z,15.70
2022-12-06T03:57:04.272Z,16.80
2022-12-06T03:57:36.086Z,16.00
2022-12-06T03:58:07.722Z,15.20
2022-12-06T03:58:39.343Z,17.00
2022-12-06T03:59:11.335Z,16.30
2022-12-06T03:59:43.132Z,15.60
2022-12-06T04:00:16.150Z,17.30
2022-12-06T04:00:47.966Z,16.70
2022-12-06T04:01:19.997Z,15.80
2022-12-06T04:01:51.667Z,15.60
2022-12-06T04:02:23.545Z,16.80
2022-12-06T04:02:55.519Z,16.10
2022-12-06T04:03:27.296Z,16.10
2022-12-06T04:03:59.336Z,16.30
2022-12-06T04:04:31.076Z,16.60
2022-12-06T04:05:03.046Z,16.30
2022-12-06T04:05:34.723Z,16.60
2022-12-06T04:06:07.072Z,16.30
2022-12-06T04:06:38.782Z,15.90
2022-12-06T04:07:11.310Z,16.30
2022-12-06T04:07:43.192Z,17.30
2022-12-06T04:08:15.127Z,16.30
2022-12-06T04:08:47.159Z,16.30
2022-12-06T04:09:37.654Z,16.60
2022-12-06T04:10:09.655Z,16.20
2022-12-06T04:10:41.341Z,17.10
2022-12-06T04:11:13.118Z,16.40
2022-12-06T04:11:44.870Z,15.60
2022-12-06T04:12:35.250Z,17.30
2022-12-06T04:13:08.009Z,15.80
2022-12-06T04:13:40.350Z,16.20
2022-12-06T04:14:12.962Z,15.70
2022-12-06T04:14:44.685Z,16.60
2022-12-06T04:15:16.938Z,16.00
2022-12-06T04:15:49.284Z,17.60
2022-12-06T04:16:39.979Z,15.20
2022-12-06T04:17:30.181Z,15.10
2022-12-06T04:18:13.353Z,14.60
2022-12-06T04:18:46.977Z,16.30
2022-12-06T04:19:18.713Z,16.20
2022-12-06T04:19:52.187Z,16.40
2022-12-06T04:20:24.648Z,16.60
2022-12-06T04:21:19.109Z,17.40
2022-12-06T04:22:23.409Z,16.40
2022-12-06T04:23:04.497Z,16.60
2022-12-06T04:23:37.783Z,17.00
2022-12-06T04:24:09.490Z,16.90
2022-12-06T04:24:41.115Z,16.30
2022-12-06T04:25:12.850Z,15.70
2022-12-06T04:25:44.724Z,15.40
2022-12-06T04:26:20.794Z,16.90
2022-12-06T04:27:12.510Z,16.50
2022-12-06T04:28:02.843Z,16.90
2022-12-06T04:28:53.187Z,15.80
2022-12-06T04:29:43.539Z,17.20
2022-12-06T04:30:33.922Z,18.00
2022-12-06T04:31:24.301Z,17.10
2022-12-06T04:32:14.977Z,16.20
2022-12-06T04:33:05.394Z,16.90
2022-12-06T04:33:55.602Z,17.50
2022-12-06T04:34:45.799Z,18.10
2022-12-06T04:35:35.987Z,17.10
2022-12-06T04:36:26.553Z,19.60
2022-12-06T04:37:17.254Z,19.60
2022-12-06T04:38:07.183Z,19.90
2022-12-06T04:38:44.546Z,19.40
2022-12-06T04:39:20.558Z,20.60
2022-12-06T04:39:52.680Z,21.00
2022-12-06T04:40:24.339Z,20.10
2022-12-06T04:40:56.198Z,20.60
2022-12-06T04:41:46.233Z,21.00
2022-12-06T04:42:36.690Z,20.30
2022-12-06T04:43:30.175Z,19.80
2022-12-06T04:44:02.575Z,21.10
2022-12-06T04:44:34.358Z,21.60
2022-12-06T04:45:06.368Z,20.30
2022-12-06T04:45:38.071Z,21.10
2022-12-06T04:46:11.235Z,22.50
2022-12-06T04:46:43.078Z,22.10
2022-12-06T04:47:14.959Z,23.10
2022-12-06T04:47:46.930Z,21.20
2022-12-06T04:48:18.638Z,21.40
2022-12-06T04:48:50.498Z,22.00
2022-12-06T04:49:22.140Z,21.60
2022-12-06T04:49:54.610Z,22.10
2022-12-06T04:50:26.558Z,22.00
2022-12-06T04:50:58.286Z,22.90
2022-12-06T04:51:29.984Z,22.40
2022-12-06T04:52:01.696Z,23.10
2022-12-06T04:52:35.993Z,22.40
2022-12-06T04:53:08.381Z,22.60
2022-12-06T04:53:40.159Z,22.80
2022-12-06T04:54:12.044Z,24.20
2022-12-06T04:54:43.865Z,22.90
2022-12-06T04:55:15.742Z,23.30
2022-12-06T04:55:47.955Z,23.00
2022-12-06T04:56:20.073Z,23.70
2022-12-06T04:56:52.770Z,23.00
2022-12-06T04:57:24.612Z,24.40
2022-12-06T04:57:56.534Z,23.70
2022-12-06T04:58:28.228Z,23.40
2022-12-06T04:58:59.854Z,25.10
2022-12-06T04:59:31.640Z,24.40
2022-12-06T05:00:04.114Z,24.40
2022-12-06T05:00:35.876Z,23.50
2022-12-06T05:01:07.686Z,25.10
2022-12-06T05:01:39.430Z,25.50
2022-12-06T05:02:13.280Z,23.20
2022-12-06T05:02:45.076Z,23.70
2022-12-06T05:03:17.076Z,25.40
2022-12-06T05:03:48.678Z,25.70
2022-12-06T05:04:20.629Z,25.20
2022-12-06T05:04:52.421Z,24.50
2022-12-06T05:05:24.241Z,25.60
2022-12-06T05:05:55.813Z,24.80
2022-12-06T05:06:27.584Z,24.30
2022-12-06T05:06:59.383Z,26.00
2022-12-06T05:07:31.258Z,25.70
2022-12-06T05:08:03.117Z,25.20
2022-12-06T05:08:34.743Z,23.50
2022-12-06T05:09:06.388Z,24.90
2022-12-06T05:09:38.550Z,25.40
2022-12-06T05:10:10.595Z,22.60
2022-12-06T05:10:46.443Z,24.80
2022-12-06T05:11:18.071Z,24.90
2022-12-06T05:11:49.652Z,23.40
2022-12-06T05:12:21.523Z,23.30
2022-12-06T05:12:53.315Z,24.50
2022-12-06T05:13:25.010Z,23.30
2022-12-06T05:13:56.712Z,24.30
2022-12-06T05:14:28.475Z,25.70
2022-12-06T05:15:00.162Z,24.70
2022-12-06T05:15:31.992Z,22.90
2022-12-06T05:16:05.466Z,24.40
2022-12-06T05:16:37.432Z,23.10
2022-12-06T05:17:09.121Z,23.90
2022-12-06T05:17:40.961Z,24.90
2022-12-06T05:18:12.715Z,24.50
2022-12-06T05:18:44.788Z,24.70
2022-12-06T05:19:16.599Z,24.10
2022-12-06T05:19:48.357Z,23.80
2022-12-06T05:20:20.313Z,25.40
2022-12-06T05:21:00.446Z,24.30
2022-12-06T05:21:32.246Z,23.30
2022-12-06T05:22:04.042Z,25.20
2022-12-06T05:22:35.952Z,23.20
2022-12-06T05:23:07.720Z,23.00
2022-12-06T05:23:39.672Z,23.90
2022-12-06T05:24:11.426Z,23.40
2022-12-06T05:24:43.259Z,22.60
2022-12-06T05:25:16.411Z,24.10
2022-12-06T05:25:48.138Z,23.90
2022-12-06T05:26:20.534Z,23.30
2022-12-06T05:26:52.417Z,23.70
2022-12-06T05:27:24.298Z,22.60
2022-12-06T05:27:56.085Z,23.50
2022-12-06T05:28:28.567Z,24.80
2022-12-06T05:29:00.436Z,23.30
2022-12-06T05:29:32.129Z,23.90
2022-12-06T05:30:04.715Z,23.30
2022-12-06T05:30:36.707Z,23.80
2022-12-06T05:31:08.476Z,23.60
2022-12-06T05:31:40.307Z,22.90
2022-12-06T05:32:12.149Z,23.60
2022-12-06T05:32:43.844Z,23.00
2022-12-06T05:33:15.590Z,23.60
2022-12-06T05:33:48.105Z,23.30
2022-12-06T05:34:20.117Z,23.00
2022-12-06T05:34:51.960Z,23.90
2022-12-06T05:35:23.724Z,23.20
2022-12-06T05:35:55.579Z,23.60
2022-12-06T05:36:27.644Z,24.00
2022-12-06T05:36:59.286Z,23.90
2022-12-06T05:37:31.044Z,23.80
2022-12-06T05:38:02.701Z,22.50
2022-12-06T05:38:34.487Z,22.90
2022-12-06T05:39:06.296Z,23.40
2022-12-06T05:39:37.958Z,23.10
2022-12-06T05:40:09.991Z,23.50
2022-12-06T05:40:42.821Z,22.70
2022-12-06T05:41:14.614Z,23.60
2022-12-06T05:41:46.406Z,22.70
2022-12-06T05:42:22.541Z,23.90
2022-12-06T05:42:54.340Z,24.00
2022-12-06T05:43:26.051Z,23.90
2022-12-06T05:43:57.817Z,24.10
2022-12-06T05:44:29.567Z,23.70
2022-12-06T05:45:01.535Z,23.90
2022-12-06T05:45:33.884Z,22.60
2022-12-06T05:46:06.073Z,23.70
2022-12-06T05:46:37.854Z,23.20
2022-12-06T05:47:12.672Z,23.20
2022-12-06T05:47:44.466Z,22.50
2022-12-06T05:48:16.129Z,22.00
2022-12-06T05:48:48.235Z,23.60
2022-12-06T05:49:20.343Z,23.90
2022-12-06T05:49:52.159Z,23.20
2022-12-06T05:50:23.972Z,22.90
2022-12-06T05:50:55.545Z,23.90
2022-12-06T05:51:27.284Z,23.70
2022-12-06T05:52:03.823Z,23.30
2022-12-06T05:52:36.163Z,22.00
2022-12-06T05:53:08.569Z,23.30
2022-12-06T05:53:40.971Z,23.80
2022-12-06T05:54:12.717Z,24.00
2022-12-06T05:54:44.397Z,24.20
2022-12-06T05:55:16.164Z,23.30
2022-12-06T05:55:47.978Z,24.00
2022-12-06T05:56:19.760Z,24.00
2022-12-06T05:56:51.440Z,24.90
2022-12-06T05:57:23.328Z,30.00
2022-12-06T05:57:55.086Z,43.50
2022-12-06T05:58:26.828Z,40.70
2022-12-06T05:58:58.588Z,44.90
2022-12-06T05:59:30.414Z,42.50
2022-12-06T06:00:03.788Z,36.40
2022-12-06T06:00:36.143Z,33.40
2022-12-06T06:01:08.747Z,31.00
2022-12-06T06:01:40.439Z,28.30
2022-12-06T06:02:12.302Z,25.80
2022-12-06T06:02:44.264Z,24.60
2022-12-06T06:03:17.196Z,27.00
2022-12-06T06:03:49.042Z,27.50
2022-12-06T06:04:20.715Z,25.40
2022-12-06T06:04:53.049Z,25.60
2022-12-06T06:05:24.960Z,24.70
2022-12-06T06:05:58.289Z,23.80
2022-12-06T06:06:30.082Z,24.30
2022-12-06T06:07:01.914Z,23.60
2022-12-06T06:07:33.661Z,23.40
2022-12-06T06:08:06.618Z,24.30
2022-12-06T06:08:38.465Z,23.50
2022-12-06T06:09:10.259Z,23.60
2022-12-06T06:09:42.086Z,22.30
2022-12-06T06:10:14.421Z,21.70
2022-12-06T06:10:46.287Z,23.30
2022-12-06T06:11:18.000Z,22.60
2022-12-06T06:11:49.955Z,23.30
2022-12-06T06:12:21.701Z,23.50
2022-12-06T06:12:53.977Z,24.10
2022-12-06T06:13:26.077Z,22.80
2022-12-06T06:13:58.025Z,23.10
2022-12-06T06:14:29.707Z,23.20
2022-12-06T06:15:01.757Z,22.50
2022-12-06T06:15:33.636Z,22.10
2022-12-06T06:16:05.471Z,21.00
2022-12-06T06:16:37.205Z,23.40
2022-12-06T06:17:09.070Z,23.30
2022-12-06T06:17:40.901Z,23.70
2022-12-06T06:18:12.904Z,24.60
2022-12-06T06:18:44.914Z,23.00
2022-12-06T06:19:18.326Z,23.90
2022-12-06T06:19:51.631Z,23.20
2022-12-06T06:20:23.833Z,22.70
2022-12-06T06:20:57.425Z,24.40
2022-12-06T06:21:29.291Z,23.00
2022-12-06T06:22:01.589Z,22.50
2022-12-06T06:22:34.654Z,24.40
2022-12-06T06:23:06.241Z,24.00
2022-12-06T06:23:38.073Z,24.80
2022-12-06T06:24:10.003Z,24.50
2022-12-06T06:24:42.426Z,22.50
2022-12-06T06:25:14.387Z,22.40
2022-12-06T06:25:46.124Z,22.60
2022-12-06T06:26:17.789Z,23.00
2022-12-06T06:26:49.525Z,21.80
2022-12-06T06:27:21.332Z,21.40
2022-12-06T06:27:53.054Z,22.00
2022-12-06T06:28:24.899Z,22.60
2022-12-06T06:28:56.594Z,21.90
2022-12-06T06:29:28.636Z,22.00
2022-12-06T06:30:00.677Z,23.70
2022-12-06T06:30:32.642Z,23.30
2022-12-06T06:31:05.736Z,22.70
2022-12-06T06:31:37.696Z,24.10
2022-12-06T06:32:09.682Z,22.60
2022-12-06T06:32:41.529Z,22.80
2022-12-06T06:33:13.464Z,21.50
2022-12-06T06:33:45.095Z,22.60
2022-12-06T06:34:17.012Z,23.00
2022-12-06T06:34:48.734Z,25.90
2022-12-06T06:35:20.401Z,23.50
2022-12-06T06:35:52.278Z,23.50
2022-12-06T06:36:24.059Z,23.80
2022-12-06T06:36:56.086Z,24.40
2022-12-06T06:37:27.758Z,22.30
2022-12-06T06:37:59.835Z,22.50
2022-12-06T06:38:31.583Z,23.00
2022-12-06T06:39:03.611Z,22.80
2022-12-06T06:39:35.505Z,23.40
2022-12-06T06:40:07.696Z,24.50
2022-12-06T06:40:39.659Z,24.20
2022-12-06T06:41:11.857Z,25.70
2022-12-06T06:41:44.150Z,27.20
2022-12-06T06:42:17.145Z,26.20
2022-12-06T06:42:48.877Z,24.70
2022-12-06T06:43:20.809Z,23.20
2022-12-06T06:43:52.582Z,22.80
2022-12-06T06:44:24.515Z,22.50
2022-12-06T06:44:56.385Z,22.60
2022-12-06T06:45:29.188Z,23.00
2022-12-06T06:46:02.351Z,23.90
2022-12-06T06:46:34.236Z,22.50
2022-12-06T06:47:05.970Z,22.90
2022-12-06T06:47:37.811Z,24.20
2022-12-06T06:48:09.441Z,22.90
2022-12-06T06:48:41.439Z,23.90
2022-12-06T06:49:13.201Z,24.10
2022-12-06T06:49:45.348Z,23.70
2022-12-06T06:50:17.280Z,22.40
2022-12-06T06:50:53.922Z,23.00
2022-12-06T06:51:30.130Z,23.90
2022-12-06T06:52:01.919Z,25.10
2022-12-06T06:52:33.959Z,23.50
2022-12-06T06:53:06.540Z,22.80
2022-12-06T06:53:38.813Z,22.80
2022-12-06T06:54:10.751Z,23.70
2022-12-06T06:54:42.469Z,22.40
2022-12-06T06:55:14.442Z,22.20
2022-12-06T06:55:46.774Z,22.10
2022-12-06T06:56:19.908Z,21.80
2022-12-06T06:56:51.840Z,22.60
2022-12-06T06:57:23.649Z,22.90
2022-12-06T06:57:55.676Z,22.80
2022-12-06T06:58:28.103Z,23.00
2022-12-06T06:58:59.932Z,22.70
2022-12-06T06:59:31.881Z,22.80
2022-12-06T07:00:04.006Z,22.50
2022-12-06T07:00:36.059Z,22.60
2022-12-06T07:01:08.483Z,22.90
2022-12-06T07:01:40.453Z,22.80
2022-12-06T07:02:13.169Z,22.30
2022-12-06T07:02:45.160Z,24.00
2022-12-06T07:03:16.910Z,23.10
2022-12-06T07:03:48.855Z,23.60
2022-12-06T07:04:20.572Z,24.10
2022-12-06T07:04:52.440Z,24.60
2022-12-06T07:05:24.513Z,24.00
2022-12-06T07:05:57.668Z,25.00
2022-12-06T07:06:29.513Z,24.60
2022-12-06T07:07:01.306Z,24.70
2022-12-06T07:07:33.011Z,24.80
2022-12-06T07:08:05.110Z,36.30
2022-12-06T07:08:37.439Z,36.00
2022-12-06T07:09:09.327Z,32.20
2022-12-06T07:09:41.206Z,29.30
2022-12-06T07:10:13.112Z,31.40
2022-12-06T07:10:48.635Z,28.60
2022-12-06T07:11:20.675Z,28.20
2022-12-06T07:11:53.172Z,25.40
2022-12-06T07:12:25.119Z,25.20
2022-12-06T07:12:57.068Z,26.20
2022-12-06T07:13:29.565Z,23.40
2022-12-06T07:14:02.157Z,25.40
2022-12-06T07:14:34.201Z,25.40
2022-12-06T07:15:06.315Z,25.20
2022-12-06T07:15:38.523Z,22.80
2022-12-06T07:16:13.160Z,22.80
2022-12-06T07:16:44.898Z,26.00
2022-12-06T07:17:16.853Z,26.30